createdAt,value
2023-01-07T00:01:48.455Z,82.27
2023-01-07T00:07:08.593Z,82.51
2023-01-07T00:12:26.832Z,82.46
2023-01-07T00:17:46.395Z,82.33
2023-01-07T00:23:05.805Z,82.14
2023-01-07T00:28:25.004Z,82.23
2023-01-07T00:33:44.404Z,82.78
2023-01-07T00:39:03.522Z,82.82
2023-01-07T00:44:22.636Z,82.88
2023-01-07T00:49:41.671Z,83.01
2023-01-07T00:55:01.898Z,83.22
2023-01-07T01:00:21.176Z,83.81
2023-01-07T01:05:39.597Z,84.59
2023-01-07T01:11:08.262Z,85.49
2023-01-07T01:16:18.916Z,86.4
2023-01-07T01:21:38.039Z,87.13
2023-01-07T01:26:57.542Z,87.91
2023-01-07T01:32:16.560Z,88.11
2023-01-07T01:37:35.609Z,88.02
2023-01-07T01:42:54.880Z,87.5
2023-01-07T01:48:14.150Z,87.26
2023-01-07T01:53:33.182Z,86.89
2023-01-07T01:58:52.834Z,86.84
2023-01-07T02:04:11.805Z,87.13
2023-01-07T02:09:31.245Z,87.59
2023-01-07T02:14:50.069Z,87.74
2023-01-07T02:20:10.385Z,87.97
2023-01-07T02:25:29.937Z,87.98
2023-01-07T02:30:49.535Z,88.24
2023-01-07T02:36:09.204Z,88.63
2023-01-07T02:41:27.523Z,88.71
2023-01-07T02:46:46.473Z,89.11
2023-01-07T02:52:05.914Z,89.52
2023-01-07T02:57:24.830Z,89.46
2023-01-07T03:02:43.879Z,89.21
2023-01-07T03:08:04.341Z,89.46
2023-01-07T03:13:23.243Z,89.17
2023-01-07T03:18:42.108Z,88.79
2023-01-07T03:24:01.281Z,88.18
2023-01-07T03:29:20.691Z,87.66
2023-01-07T03:34:39.646Z,87.52
2023-01-07T03:39:59.383Z,87.32
2023-01-07T03:45:19.089Z,87.8
2023-01-07T03:50:37.903Z,87.16
2023-01-07T03:55:56.710Z,87.79
2023-01-07T04:01:16.135Z,87.08
2023-01-07T04:06:35.696Z,86.54
2023-01-07T04:11:54.950Z,86.21
2023-01-07T04:17:14.240Z,85.88
2023-01-07T04:22:33.962Z,86.02
2023-01-07T04:27:52.491Z,85.57
2023-01-07T04:33:11.775Z,85.42
2023-01-07T04:38:30.566Z,85.4
2023-01-07T04:43:50.596Z,85.58
2023-01-07T04:49:10.053Z,85.24
2023-01-07T04:54:29.433Z,84.73
2023-01-07T04:59:49.162Z,84.22
2023-01-07T05:05:07.291Z,83.98
2023-01-07T05:10:26.132Z,84
2023-01-07T05:10:51.151Z,82.2
2023-01-07T05:16:10.998Z,84.21
2023-01-07T05:21:29.395Z,84.45
2023-01-07T05:26:48.860Z,84.75
2023-01-07T05:32:08.441Z,84.87
2023-01-07T05:37:28.115Z,84.86
2023-01-07T05:42:47.283Z,84.34
2023-01-07T05:48:07.034Z,84.13
2023-01-07T05:53:26.699Z,83.99
2023-01-07T05:58:46.147Z,83.27
2023-01-07T06:04:04.960Z,83.04
2023-01-07T06:09:24.200Z,83.72
2023-01-07T06:14:43.384Z,84.22
2023-01-07T06:20:02.672Z,84.26
2023-01-07T06:25:22.354Z,83.41
2023-01-07T06:30:41.947Z,82.88
2023-01-07T06:36:01.428Z,82.41
2023-01-07T06:41:20.371Z,82.33
2023-01-07T06:46:39.280Z,82.61
2023-01-07T06:51:58.445Z,81.65
2023-01-07T06:57:17.278Z,81.08
2023-01-07T07:02:36.281Z,79.64
2023-01-07T07:07:55.269Z,79.33
2023-01-07T07:13:14.667Z,79.58
2023-01-07T07:18:33.851Z,79.36
2023-01-07T07:23:53.271Z,79.43
2023-01-07T07:29:12.192Z,80.82
2023-01-07T07:34:31.333Z,81.58
2023-01-07T07:39:51.240Z,82.02
2023-01-07T07:45:09.602Z,80.58
2023-01-07T07:50:28.419Z,80.07
2023-01-07T07:55:48.661Z,79.55
2023-01-07T08:01:08.245Z,77.33
2023-01-07T08:06:26.961Z,77.98
2023-01-07T08:11:45.898Z,77.04
2023-01-07T08:17:05.126Z,81.12
2023-01-07T08:22:24.482Z,82
2023-01-07T08:27:43.327Z,82.77
2023-01-07T08:33:02.814Z,82.63
2023-01-07T08:38:22.073Z,81.44
2023-01-07T08:43:40.829Z,81.06
2023-01-07T08:48:59.815Z,80.94
2023-01-07T08:54:19.262Z,81.44
2023-01-07T08:59:38.112Z,80.62
2023-01-07T09:04:56.957Z,80.39
2023-01-07T09:10:16.004Z,80.33
2023-01-07T09:15:35.729Z,80.12
2023-01-07T09:20:55.061Z,80.61
2023-01-07T09:26:14.047Z,80.42
2023-01-07T09:31:33.327Z,80.67
2023-01-07T09:36:52.489Z,80.14
2023-01-07T09:42:11.367Z,79.81
2023-01-07T09:47:30.365Z,79.48
2023-01-07T09:52:49.900Z,79.66
2023-01-07T09:58:08.887Z,79.15
2023-01-07T10:03:35.935Z,78.33
2023-01-07T10:08:47.609Z,76.86
2023-01-07T10:14:06.942Z,76.19
2023-01-07T10:19:26.339Z,77.23
2023-01-07T10:24:45.401Z,75.41
2023-01-07T10:30:05.291Z,75.5
2023-01-07T10:35:24.658Z,75.39
2023-01-07T10:40:43.451Z,75.22
2023-01-07T10:46:02.823Z,75.26
2023-01-07T10:51:22.247Z,75.51
2023-01-07T10:56:41.313Z,73.97
2023-01-07T11:01:59.888Z,73.69
2023-01-07T11:07:19.079Z,73.86
2023-01-07T11:12:38.189Z,74.03
2023-01-07T11:17:56.938Z,74.48
2023-01-07T11:23:16.185Z,74.49
2023-01-07T11:28:35.848Z,74.49
2023-01-07T11:34:01.024Z,73.08
2023-01-07T11:39:14.872Z,72.39
2023-01-07T11:44:34.425Z,72.48
2023-01-07T11:49:53.321Z,72.25
2023-01-07T11:55:12.989Z,73.19
2023-01-07T12:00:32.194Z,73.26
2023-01-07T12:05:50.908Z,72.76
2023-01-07T12:11:10.237Z,72.4
2023-01-07T12:16:29.186Z,73.44
2023-01-07T12:21:48.286Z,72.21
2023-01-07T12:27:07.381Z,69.72
2023-01-07T12:32:26.464Z,70.57
2023-01-07T12:37:45.569Z,68.85
2023-01-07T12:43:04.882Z,70.33
2023-01-07T12:48:24.147Z,70.55
2023-01-07T12:53:43.481Z,70.98
2023-01-07T12:59:02.962Z,71.19
2023-01-07T13:05:37.140Z,71.44
2023-01-07T13:09:43.151Z,71.24
2023-01-07T13:15:02.536Z,72.85
2023-01-07T13:20:22.092Z,70.92
2023-01-07T13:25:41.200Z,70.35
2023-01-07T13:31:00.664Z,71.44
2023-01-07T13:36:20.117Z,69.22
2023-01-07T13:41:39.513Z,68.49
2023-01-07T13:46:58.896Z,67.31
2023-01-07T13:52:18.298Z,66.04
2023-01-07T13:57:37.421Z,66.11
2023-01-07T14:02:56.268Z,67.01
2023-01-07T14:08:14.927Z,67.26
2023-01-07T14:13:33.944Z,66.93
2023-01-07T14:18:52.729Z,67.87
2023-01-07T14:24:12.308Z,65.86
2023-01-07T14:29:31.790Z,65.3
2023-01-07T14:34:51.234Z,65.85
2023-01-07T14:40:09.219Z,65.74
2023-01-07T14:45:28.291Z,65.76
2023-01-07T14:50:47.288Z,65.07
2023-01-07T14:56:06.447Z,66.69
2023-01-07T15:01:25.847Z,66.94
2023-01-07T15:06:45.211Z,71.26
2023-01-07T15:12:04.235Z,71.94
2023-01-07T15:17:23.174Z,72.57
2023-01-07T15:22:42.368Z,74.94
2023-01-07T15:29:16.491Z,75.99
2023-01-07T15:33:21.621Z,75.99
2023-01-07T15:38:40.624Z,76.03
2023-01-07T15:44:00.225Z,75.72
2023-01-07T15:49:19.562Z,75.65
2023-01-07T15:54:39.009Z,75.44
2023-01-07T15:59:58.225Z,75.56
2023-01-07T16:05:17.973Z,76.75
2023-01-07T16:10:37.654Z,79.94
2023-01-07T16:15:56.490Z,82.93
2023-01-07T16:21:15.731Z,84.98
2023-01-07T16:26:34.509Z,86.57
2023-01-07T16:31:53.422Z,87.59
2023-01-07T16:37:12.266Z,87.66
2023-01-07T16:42:31.913Z,87.31
2023-01-07T16:47:51.466Z,87.07
2023-01-07T16:53:11.243Z,86.44
2023-01-07T16:58:30.282Z,87.41
2023-01-07T17:03:50.582Z,87.62
2023-01-07T17:09:09.567Z,87.37
2023-01-07T17:14:28.153Z,87.91
2023-01-07T17:19:47.631Z,87.71
2023-01-07T17:25:07.260Z,88.15
2023-01-07T17:30:26.436Z,88.12
2023-01-07T17:35:45.384Z,90.04
2023-01-07T17:41:05.139Z,90.05
2023-01-07T17:46:24.593Z,91.04
2023-01-07T17:51:44.787Z,92.22
2023-01-07T17:57:03.830Z,92.76
2023-01-07T18:03:38.052Z,93.26
2023-01-07T18:07:42.265Z,93.99
2023-01-07T18:13:00.894Z,93.87
2023-01-07T18:18:19.811Z,93.6
2023-01-07T18:23:38.700Z,90.83
2023-01-07T18:28:57.764Z,87.85
2023-01-07T18:34:17.718Z,88.2
2023-01-07T18:39:37.149Z,89.13
2023-01-07T18:44:56.067Z,89.6
2023-01-07T18:50:14.937Z,90.11
2023-01-07T18:55:33.768Z,90.85
2023-01-07T19:00:53.512Z,91.23
2023-01-07T19:06:12.803Z,90.62
2023-01-07T19:11:32.917Z,89.63
2023-01-07T19:16:52.110Z,88.56
2023-01-07T19:22:11.687Z,86.25
2023-01-07T19:27:30.556Z,87.62
2023-01-07T19:32:50.095Z,86.48
2023-01-07T19:38:09.331Z,87.39
2023-01-07T19:43:28.624Z,85.98
2023-01-07T19:48:47.929Z,86.8
2023-01-07T19:54:07.524Z,84.84
2023-01-07T19:59:27.021Z,89.89
2023-01-07T20:04:46.110Z,89.96
2023-01-07T20:10:05.503Z,90.25
2023-01-07T20:16:39.748Z,88.98
2023-01-07T20:20:44.761Z,87.21
2023-01-07T20:26:03.452Z,87.17
2023-01-07T20:31:21.421Z,86.68
2023-01-07T20:36:40.145Z,87.09
2023-01-07T20:41:58.989Z,87.89
2023-01-07T20:47:18.338Z,87.53
2023-01-07T20:52:37.470Z,86.36
2023-01-07T20:57:57.017Z,88.71
2023-01-07T21:03:16.351Z,86.79
2023-01-07T21:08:35.439Z,85.35
2023-01-07T21:13:54.746Z,84.14
2023-01-07T21:19:14.136Z,84.07
2023-01-07T21:24:43.090Z,85.01
2023-01-07T21:29:52.569Z,85.16
2023-01-07T21:35:11.678Z,84.53
2023-01-07T21:40:30.674Z,83.97
2023-01-07T21:45:49.868Z,81.91
2023-01-07T21:51:09.360Z,85.03
2023-01-07T21:56:29.001Z,85.14
2023-01-07T22:01:48.659Z,84.16
2023-01-07T22:07:07.518Z,83.06
2023-01-07T22:12:26.427Z,85.31
2023-01-07T22:17:46.001Z,87.48
2023-01-07T22:23:05.211Z,89.55
2023-01-07T22:28:25.014Z,90.26
2023-01-07T22:33:44.320Z,91.63
2023-01-07T22:39:03.800Z,91.38
2023-01-07T22:44:23.376Z,91.02
2023-01-07T22:49:42.412Z,90.77
2023-01-07T22:55:01.961Z,89.73
2023-01-07T22:55:28.048Z,87.95
2023-01-07T23:00:47.116Z,90.09
2023-01-07T23:06:06.299Z,90.34
2023-01-07T23:11:26.063Z,89.04
2023-01-07T23:16:45.825Z,88.82
2023-01-07T23:22:04.942Z,88.82
2023-01-07T23:27:24.188Z,88.84
2023-01-07T23:32:43.518Z,86.41
2023-01-07T23:38:03.198Z,82.9
2023-01-07T23:43:22.327Z,86.89
2023-01-07T23:49:56.490Z,88.34
2023-01-07T23:54:01.181Z,88.34
2023-01-07T23:59:20.051Z,87.55
